Time;durP1;ratioP1;P1;durP2;ratioP2;P2;SDS_P1;SDS_P2;PMS_P1;PMS_P2;Temp;Humidity;BMP_temperature;BMP_pressure;BME280_temperature;BME280_humidity;BME280_pressure;Samples;Min_cycle;Max_cycle;Signal;HPM_P1;HPM_P2
2021/05/21 00:01:39;;;;;;;1.95;1.20;;;;;;;;;;5034374;28;20180;-52
2021/05/21 00:04:06;;;;;;;2.70;1.10;;;;;;;;;;5034308;28;20531;-51
2021/05/21 00:06:33;;;;;;;1.70;1.20;;;;;;;;;;5029721;28;20492;-49
2021/05/21 00:09:00;;;;;;;4.00;1.30;;;;;;;;;;5014683;28;20056;-53
2021/05/21 00:11:27;;;;;;;1.25;1.00;;;;;;;;;;5014344;28;20133;-50
2021/05/21 00:13:54;;;;;;;2.05;1.30;;;;;;;;;;5014583;28;20412;-53
2021/05/21 00:16:21;;;;;;;2.92;1.10;;;;;;;;;;5014065;28;20100;-51
2021/05/21 00:18:48;;;;;;;2.63;1.10;;;;;;;;;;5014429;28;20049;-52
2021/05/21 00:21:15;;;;;;;2.38;1.30;;;;;;;;;;5014440;28;20050;-50
2021/05/21 00:23:42;;;;;;;3.95;1.35;;;;;;;;;;5012915;28;20062;-53
2021/05/21 00:26:09;;;;;;;2.45;1.40;;;;;;;;;;5014260;28;20458;-53
2021/05/21 00:28:36;;;;;;;1.85;1.05;;;;;;;;;;5013771;28;20064;-53
2021/05/21 00:31:03;;;;;;;2.05;1.27;;;;;;;;;;5013103;28;20049;-49
2021/05/21 00:33:30;;;;;;;2.67;1.30;;;;;;;;;;5014300;28;20061;-50
2021/05/21 00:36:06;;;;;;;2.38;1.20;;;;;;;;;;5013925;28;20137;-53
2021/05/21 00:38:32;;;;;;;2.03;1.38;;;;;;;;;;5013917;28;20062;-47
2021/05/21 00:41:00;;;;;;;1.58;1.30;;;;;;;;;;5014042;28;20503;-52
2021/05/21 00:43:27;;;;;;;3.28;1.20;;;;;;;;;;5013878;28;20368;-49
2021/05/21 00:46:03;;;;;;;2.65;1.40;;;;;;;;;;5030647;23;20096;-57
2021/05/21 00:48:29;;;;;;;2.42;1.38;;;;;;;;;;5012874;28;20108;-56
2021/05/21 00:50:56;;;;;;;2.00;1.30;;;;;;;;;;5011973;28;20410;-56
2021/05/21 00:53:28;;;;;;;3.70;1.60;;;;;;;;;;5007248;28;20049;-54
2021/05/21 00:55:59;;;;;;;2.13;1.40;;;;;;;;;;4994147;28;20522;-57
2021/05/21 00:58:26;;;;;;;2.83;1.10;;;;;;;;;;4996686;28;20539;-57
2021/05/21 01:00:56;;;;;;;5.68;1.40;;;;;;;;;;4993942;28;20058;-55
2021/05/21 01:03:23;;;;;;;2.50;1.20;;;;;;;;;;5003208;28;20057;-56
2021/05/21 01:05:50;;;;;;;2.17;1.30;;;;;;;;;;5013749;28;20065;-57
2021/05/21 01:08:17;;;;;;;1.85;1.15;;;;;;;;;;4998137;28;20050;-55
2021/05/21 01:11:02;;;;;;;2.53;1.02;;;;;;;;;;4992716;28;20054;-56
2021/05/21 01:13:28;;;;;;;1.98;1.10;;;;;;;;;;4993854;28;20046;-55
2021/05/21 01:15:55;;;;;;;2.22;1.00;;;;;;;;;;4993636;28;20062;-55
2021/05/21 01:18:22;;;;;;;2.20;1.10;;;;;;;;;;4993405;28;20424;-57
2021/05/21 01:20:49;;;;;;;2.28;1.23;;;;;;;;;;4993466;28;20054;-57
2021/05/21 01:23:16;;;;;;;4.18;1.33;;;;;;;;;;4993469;28;20423;-54
2021/05/21 01:25:43;;;;;;;1.58;1.10;;;;;;;;;;4992933;28;20054;-55
2021/05/21 01:28:13;;;;;;;2.13;1.23;;;;;;;;;;4991879;28;20042;-54
2021/05/21 01:30:40;;;;;;;1.40;1.00;;;;;;;;;;4993735;28;20050;-56
2021/05/21 01:33:08;;;;;;;1.92;1.00;;;;;;;;;;4993973;28;20054;-57
2021/05/21 01:35:35;;;;;;;2.38;1.10;;;;;;;;;;4992843;28;20078;-58
2021/05/21 01:38:02;;;;;;;2.95;0.95;;;;;;;;;;4992491;28;20050;-57
2021/05/21 01:40:29;;;;;;;1.80;1.20;;;;;;;;;;5007232;28;20053;-58
2021/05/21 01:42:56;;;;;;;2.03;1.10;;;;;;;;;;5012532;28;20494;-57
2021/05/21 01:45:23;;;;;;;1.63;0.85;;;;;;;;;;4995524;28;20046;-57
2021/05/21 01:47:50;;;;;;;2.58;1.10;;;;;;;;;;4992346;28;20058;-57
2021/05/21 01:50:18;;;;;;;1.73;1.02;;;;;;;;;;4993070;28;20046;-57
2021/05/21 01:52:45;;;;;;;4.97;1.10;;;;;;;;;;4995809;28;20076;-57
2021/05/21 01:55:12;;;;;;;1.15;0.85;;;;;;;;;;5021939;28;20537;-55
2021/05/21 01:57:40;;;;;;;2.53;1.25;;;;;;;;;;5010690;28;20057;-56
2021/05/21 02:00:09;;;;;;;3.20;1.20;;;;;;;;;;4992620;28;20046;-56
2021/05/21 02:02:41;;;;;;;1.85;1.00;;;;;;;;;;4993029;28;20076;-57
2021/05/21 02:05:09;;;;;;;1.90;1.10;;;;;;;;;;4993065;28;20066;-56
2021/05/21 02:07:37;;;;;;;1.30;0.93;;;;;;;;;;4992028;28;20061;-56
2021/05/21 02:10:06;;;;;;;2.83;0.80;;;;;;;;;;4992757;28;20062;-54
2021/05/21 02:12:35;;;;;;;2.38;0.80;;;;;;;;;;4992928;28;20444;-57
2021/05/21 02:15:07;;;;;;;1.15;0.70;;;;;;;;;;4992769;28;20046;-54
2021/05/21 02:17:35;;;;;;;1.58;0.80;;;;;;;;;;4990643;28;20058;-57
2021/05/21 02:20:03;;;;;;;1.15;0.90;;;;;;;;;;4992966;28;20415;-57
2021/05/21 02:22:32;;;;;;;1.80;0.90;;;;;;;;;;4992471;28;20133;-57
2021/05/21 02:25:01;;;;;;;1.70;1.00;;;;;;;;;;4992566;28;20042;-56
2021/05/21 02:27:28;;;;;;;1.48;0.90;;;;;;;;;;4993008;28;20514;-56
2021/05/21 02:29:56;;;;;;;1.88;1.00;;;;;;;;;;5007607;28;20053;-56
2021/05/21 02:32:24;;;;;;;2.70;0.90;;;;;;;;;;4991973;28;20495;-58
2021/05/21 02:34:53;;;;;;;1.48;0.70;;;;;;;;;;4991236;28;20102;-58
2021/05/21 02:37:21;;;;;;;1.30;0.80;;;;;;;;;;5007486;28;20050;-57
2021/05/21 02:39:49;;;;;;;2.72;0.82;;;;;;;;;;5012149;28;20080;-58
2021/05/21 02:42:16;;;;;;;1.50;0.80;;;;;;;;;;5010890;28;20057;-58
2021/05/21 02:44:45;;;;;;;2.53;0.90;;;;;;;;;;5010563;28;20104;-57
2021/05/21 02:47:13;;;;;;;1.38;0.80;;;;;;;;;;5010733;28;20480;-55
2021/05/21 02:49:40;;;;;;;2.17;0.88;;;;;;;;;;5011909;28;20037;-55
2021/05/21 02:52:07;;;;;;;1.10;0.70;;;;;;;;;;5002872;28;20494;-57
2021/05/21 02:54:34;;;;;;;0.98;0.73;;;;;;;;;;4992288;28;20078;-56
2021/05/21 02:57:02;;;;;;;1.38;0.73;;;;;;;;;;4991430;28;20435;-57
2021/05/21 02:59:29;;;;;;;1.27;1.00;;;;;;;;;;5002844;28;20085;-56
2021/05/21 03:01:57;;;;;;;1.58;0.80;;;;;;;;;;4992170;28;20046;-56
2021/05/21 03:04:24;;;;;;;1.75;0.70;;;;;;;;;;5006878;28;20077;-57
2021/05/21 03:06:52;;;;;;;1.75;1.00;;;;;;;;;;4990442;28;20054;-56
2021/05/21 03:09:20;;;;;;;1.92;0.90;;;;;;;;;;5008548;28;20058;-56
2021/05/21 03:11:48;;;;;;;1.23;0.80;;;;;;;;;;5011969;28;20137;-56
2021/05/21 03:14:16;;;;;;;2.55;1.13;;;;;;;;;;5011655;28;20129;-55
2021/05/21 03:16:43;;;;;;;1.30;0.88;;;;;;;;;;5000914;28;20050;-55
2021/05/21 03:19:11;;;;;;;2.38;0.90;;;;;;;;;;4974653;28;20478;-55
2021/05/21 03:21:38;;;;;;;1.95;0.80;;;;;;;;;;4991996;28;20046;-55
2021/05/21 03:24:06;;;;;;;3.67;0.82;;;;;;;;;;4991913;28;20463;-55
2021/05/21 03:26:33;;;;;;;2.08;0.70;;;;;;;;;;4991810;28;20038;-55
2021/05/21 03:29:00;;;;;;;1.35;0.80;;;;;;;;;;5002534;28;20041;-53
2021/05/21 03:31:27;;;;;;;2.35;0.82;;;;;;;;;;5011938;28;20130;-56
2021/05/21 03:33:54;;;;;;;1.10;0.73;;;;;;;;;;5012072;28;20046;-52
2021/05/21 03:36:20;;;;;;;1.75;0.80;;;;;;;;;;5003913;28;20055;-55
2021/05/21 03:38:47;;;;;;;1.65;0.90;;;;;;;;;;4992212;28;20129;-55
2021/05/21 03:41:14;;;;;;;1.38;0.90;;;;;;;;;;5011396;28;20050;-54
2021/05/21 03:43:41;;;;;;;1.92;0.80;;;;;;;;;;5010460;28;20054;-56
2021/05/21 03:46:08;;;;;;;3.28;0.90;;;;;;;;;;4991556;28;20038;-56
2021/05/21 03:48:35;;;;;;;1.23;0.80;;;;;;;;;;4991582;28;20053;-55
2021/05/21 03:51:02;;;;;;;0.93;0.82;;;;;;;;;;4990530;28;20682;-57
2021/05/21 03:53:28;;;;;;;1.67;0.75;;;;;;;;;;4991590;28;20463;-55
2021/05/21 03:55:55;;;;;;;1.40;0.75;;;;;;;;;;4991759;28;20589;-56
2021/05/21 03:58:22;;;;;;;3.88;0.73;;;;;;;;;;4992640;28;20108;-57
2021/05/21 04:00:50;;;;;;;1.23;0.80;;;;;;;;;;4995321;28;20100;-57
2021/05/21 04:03:17;;;;;;;0.98;0.60;;;;;;;;;;4995193;28;20104;-57
2021/05/21 04:05:44;;;;;;;0.90;0.73;;;;;;;;;;4995204;28;20074;-54
2021/05/21 04:08:11;;;;;;;1.02;0.60;;;;;;;;;;4993927;28;20098;-57
2021/05/21 04:10:37;;;;;;;2.70;1.10;;;;;;;;;;4995109;28;20507;-55
2021/05/21 04:13:04;;;;;;;3.08;1.15;;;;;;;;;;4995044;28;20536;-55
2021/05/21 04:15:31;;;;;;;1.98;0.70;;;;;;;;;;4995123;28;20160;-55
2021/05/21 04:17:58;;;;;;;1.98;0.70;;;;;;;;;;4994954;28;20169;-57
2021/05/21 04:20:25;;;;;;;4.13;0.80;;;;;;;;;;4994986;28;20066;-56
2021/05/21 04:22:52;;;;;;;1.17;0.93;;;;;;;;;;4994887;28;20050;-56
2021/05/21 04:25:19;;;;;;;1.00;0.60;;;;;;;;;;4994880;28;20051;-54
2021/05/21 04:27:46;;;;;;;1.13;0.70;;;;;;;;;;4994401;28;20046;-56
2021/05/21 04:30:13;;;;;;;2.60;0.80;;;;;;;;;;4994713;28;20100;-55
2021/05/21 04:32:40;;;;;;;1.38;0.70;;;;;;;;;;4994950;28;20058;-55
2021/05/21 04:35:08;;;;;;;2.42;0.80;;;;;;;;;;4994791;28;20052;-56
2021/05/21 04:37:34;;;;;;;1.52;0.80;;;;;;;;;;4994209;28;20483;-56
2021/05/21 04:40:02;;;;;;;1.15;0.75;;;;;;;;;;5004707;28;20046;-53
2021/05/21 04:42:42;;;;;;;3.00;0.60;;;;;;;;;;5014403;28;20472;-58
2021/05/21 04:45:09;;;;;;;3.78;0.70;;;;;;;;;;5006665;28;20393;-58
2021/05/21 04:47:37;;;;;;;1.65;0.75;;;;;;;;;;4977163;28;20050;-57
2021/05/21 04:50:04;;;;;;;1.08;0.70;;;;;;;;;;4994710;28;20074;-57
2021/05/21 04:52:31;;;;;;;1.55;1.08;;;;;;;;;;4994474;28;20058;-56
2021/05/21 04:54:58;;;;;;;1.73;0.90;;;;;;;;;;5006077;28;20092;-56
2021/05/21 04:57:25;;;;;;;2.28;0.82;;;;;;;;;;5013732;28;20076;-58
2021/05/21 04:59:52;;;;;;;1.50;0.85;;;;;;;;;;5003617;28;20499;-55
2021/05/21 05:02:18;;;;;;;2.55;1.05;;;;;;;;;;5014211;28;20065;-57
2021/05/21 05:04:45;;;;;;;1.98;0.77;;;;;;;;;;5024245;28;20133;-58
2021/05/21 05:07:12;;;;;;;3.03;0.93;;;;;;;;;;5012219;28;20081;-58
2021/05/21 05:09:39;;;;;;;1.08;0.70;;;;;;;;;;5013243;28;20042;-56
2021/05/21 05:12:06;;;;;;;0.70;0.70;;;;;;;;;;5013675;28;20526;-56
2021/05/21 05:14:33;;;;;;;1.02;0.60;;;;;;;;;;5013958;28;20053;-53
2021/05/21 05:16:59;;;;;;;2.10;0.77;;;;;;;;;;4994920;28;20058;-55
2021/05/21 05:19:26;;;;;;;1.05;0.80;;;;;;;;;;4994088;28;20054;-54
2021/05/21 05:21:53;;;;;;;2.92;0.77;;;;;;;;;;4994358;28;20054;-54
2021/05/21 05:24:22;;;;;;;2.83;0.88;;;;;;;;;;4994064;28;20104;-55
2021/05/21 05:26:49;;;;;;;1.67;0.90;;;;;;;;;;5010734;28;20053;-55
2021/05/21 05:29:16;;;;;;;1.25;0.70;;;;;;;;;;4999144;28;20133;-56
2021/05/21 05:31:46;;;;;;;2.95;0.88;;;;;;;;;;4993736;28;20133;-57
2021/05/21 05:34:14;;;;;;;4.55;1.02;;;;;;;;;;5004238;28;20471;-54
2021/05/21 05:36:41;;;;;;;2.45;1.20;;;;;;;;;;5000380;28;20065;-52
2021/05/21 05:39:08;;;;;;;2.85;0.90;;;;;;;;;;5028279;28;20053;-58
2021/05/21 05:41:35;;;;;;;3.83;1.10;;;;;;;;;;5014781;28;20058;-56
2021/05/21 05:44:02;;;;;;;1.33;0.85;;;;;;;;;;5011810;28;20108;-54
2021/05/21 05:46:29;;;;;;;2.58;1.20;;;;;;;;;;5012602;28;20107;-55
2021/05/21 05:48:56;;;;;;;5.68;1.65;;;;;;;;;;5013020;28;20392;-58
2021/05/21 05:51:22;;;;;;;4.85;1.10;;;;;;;;;;5013438;28;20046;-57
2021/05/21 05:53:50;;;;;;;4.72;1.00;;;;;;;;;;5002229;28;20583;-56
2021/05/21 05:56:17;;;;;;;2.33;0.98;;;;;;;;;;4999527;28;20420;-57
2021/05/21 05:58:45;;;;;;;5.25;1.85;;;;;;;;;;5010264;28;20054;-55
2021/05/21 06:01:12;;;;;;;2.83;0.98;;;;;;;;;;5011078;28;20096;-56
2021/05/21 06:03:38;;;;;;;2.03;0.95;;;;;;;;;;5009340;28;20069;-55
2021/05/21 06:06:05;;;;;;;2.28;1.00;;;;;;;;;;5022936;28;20514;-57
2021/05/21 06:08:52;;;;;;;3.45;1.05;;;;;;;;;;5011597;28;20046;-57
2021/05/21 06:11:19;;;;;;;1.40;0.93;;;;;;;;;;4999245;28;20053;-56
2021/05/21 06:13:46;;;;;;;3.22;1.13;;;;;;;;;;4992752;28;20046;-57
2021/05/21 06:16:13;;;;;;;4.28;1.05;;;;;;;;;;4996426;28;20503;-56
2021/05/21 06:18:40;;;;;;;3.47;1.25;;;;;;;;;;5017387;28;20132;-55
2021/05/21 06:21:08;;;;;;;4.72;0.95;;;;;;;;;;5020217;28;20498;-55
2021/05/21 06:23:37;;;;;;;2.85;0.90;;;;;;;;;;5018690;28;20075;-56
2021/05/21 06:28:54;;;;;;;1.63;0.73;;;;;;;;;;5007791;28;20053;-53
2021/05/21 06:31:21;;;;;;;4.70;0.70;;;;;;;;;;5028535;28;20049;-55
2021/05/21 06:33:48;;;;;;;2.70;0.70;;;;;;;;;;5016886;28;20076;-53
2021/05/21 06:36:15;;;;;;;2.53;0.70;;;;;;;;;;5013487;28;20062;-55
2021/05/21 06:38:42;;;;;;;1.38;0.75;;;;;;;;;;4998299;28;20050;-51
2021/05/21 06:41:09;;;;;;;2.53;0.77;;;;;;;;;;5015414;28;20057;-55
2021/05/21 06:43:36;;;;;;;1.63;0.63;;;;;;;;;;5011971;28;20048;-55
2021/05/21 06:46:04;;;;;;;0.93;0.57;;;;;;;;;;5023249;28;20073;-56
2021/05/21 06:48:33;;;;;;;2.63;0.88;;;;;;;;;;5011205;23;20758;-53
2021/05/21 06:51:04;;;;;;;3.45;0.70;;;;;;;;;;5009898;28;20053;-52
2021/05/21 06:53:31;;;;;;;2.50;0.65;;;;;;;;;;5010959;28;20406;-54
2021/05/21 06:55:58;;;;;;;1.77;0.90;;;;;;;;;;5010835;28;20065;-53
2021/05/21 06:58:26;;;;;;;3.55;0.80;;;;;;;;;;4992297;28;20420;-49
2021/05/21 07:00:56;;;;;;;1.38;0.70;;;;;;;;;;4976875;28;20109;-50
2021/05/21 07:03:27;;;;;;;2.50;0.90;;;;;;;;;;4979154;28;20054;-52
2021/05/21 07:05:55;;;;;;;1.00;0.70;;;;;;;;;;4988806;28;20054;-52
2021/05/21 07:08:23;;;;;;;5.38;0.90;;;;;;;;;;4985186;28;20404;-51
2021/05/21 07:10:49;;;;;;;2.13;1.02;;;;;;;;;;4991957;28;20069;-51
2021/05/21 07:13:17;;;;;;;1.70;0.93;;;;;;;;;;4988712;28;20058;-49
2021/05/21 07:15:45;;;;;;;2.28;0.90;;;;;;;;;;4991516;28;20504;-56
2021/05/21 07:18:12;;;;;;;3.25;0.90;;;;;;;;;;4990000;28;20050;-51
2021/05/21 07:20:44;;;;;;;1.52;0.80;;;;;;;;;;4989760;28;20054;-52
2021/05/21 07:23:11;;;;;;;5.00;0.75;;;;;;;;;;4995311;28;20112;-57
2021/05/21 07:25:38;;;;;;;1.83;0.70;;;;;;;;;;4991376;28;20061;-51
2021/05/21 07:28:05;;;;;;;1.65;0.80;;;;;;;;;;4975598;28;20045;-54
2021/05/21 07:30:31;;;;;;;2.35;0.70;;;;;;;;;;4971839;28;20047;-51
2021/05/21 07:32:58;;;;;;;4.97;0.80;;;;;;;;;;4986390;28;20464;-55
2021/05/21 07:35:26;;;;;;;2.50;0.93;;;;;;;;;;4989226;28;20046;-53
2021/05/21 07:37:52;;;;;;;1.20;0.57;;;;;;;;;;4987144;28;20504;-49
2021/05/21 07:40:23;;;;;;;3.55;0.90;;;;;;;;;;4988575;28;20499;-50
2021/05/21 07:42:52;;;;;;;2.53;0.80;;;;;;;;;;4989221;28;20125;-49
2021/05/21 07:45:19;;;;;;;1.00;0.70;;;;;;;;;;4988300;28;20046;-55
2021/05/21 07:47:46;;;;;;;0.77;0.57;;;;;;;;;;4987933;28;20507;-53
2021/05/21 07:50:13;;;;;;;2.30;0.63;;;;;;;;;;4988681;28;20053;-55
2021/05/21 07:52:40;;;;;;;1.52;0.60;;;;;;;;;;4988256;28;20050;-55
2021/05/21 07:55:07;;;;;;;0.85;0.60;;;;;;;;;;4986158;28;20042;-53
2021/05/21 07:57:37;;;;;;;1.02;0.60;;;;;;;;;;4991857;28;20069;-54
2021/05/21 08:00:05;;;;;;;2.55;0.95;;;;;;;;;;4981508;28;20059;-48
2021/05/21 08:02:35;;;;;;;2.53;0.73;;;;;;;;;;4989643;28;20046;-50
2021/05/21 08:05:02;;;;;;;1.50;0.90;;;;;;;;;;4987344;28;20599;-53
2021/05/21 08:07:29;;;;;;;1.45;0.80;;;;;;;;;;4988552;28;20046;-59
2021/05/21 08:09:57;;;;;;;2.42;1.10;;;;;;;;;;4987172;28;20225;-56
2021/05/21 08:12:24;;;;;;;2.88;1.00;;;;;;;;;;4989556;28;20113;-53
2021/05/21 08:14:51;;;;;;;2.25;1.00;;;;;;;;;;4986804;28;20051;-53
2021/05/21 08:17:17;;;;;;;1.80;0.70;;;;;;;;;;4988823;28;20053;-48
2021/05/21 08:19:45;;;;;;;2.95;0.80;;;;;;;;;;4989570;28;20050;-53
2021/05/21 08:22:13;;;;;;;1.73;0.73;;;;;;;;;;4989841;28;20526;-49
2021/05/21 08:24:40;;;;;;;1.83;0.80;;;;;;;;;;4988318;28;20064;-49
2021/05/21 08:27:08;;;;;;;2.88;0.65;;;;;;;;;;4988233;28;20081;-52
2021/05/21 08:29:35;;;;;;;2.22;0.75;;;;;;;;;;4990936;28;20531;-54
2021/05/21 08:32:02;;;;;;;1.58;0.57;;;;;;;;;;4991357;28;20054;-55
2021/05/21 08:34:29;;;;;;;2.17;0.60;;;;;;;;;;4988613;28;20504;-51
2021/05/21 08:36:56;;;;;;;2.80;0.90;;;;;;;;;;4992480;28;20144;-53
2021/05/21 08:39:23;;;;;;;1.63;0.90;;;;;;;;;;4987434;28;20047;-51
2021/05/21 08:41:54;;;;;;;2.35;0.80;;;;;;;;;;4991069;28;20054;-48
2021/05/21 08:44:21;;;;;;;2.92;0.88;;;;;;;;;;4986753;28;20390;-49
2021/05/21 08:46:48;;;;;;;2.67;0.73;;;;;;;;;;4986180;28;20534;-52
2021/05/21 08:49:16;;;;;;;1.13;0.60;;;;;;;;;;4989785;28;20049;-48
2021/05/21 08:51:42;;;;;;;2.47;0.68;;;;;;;;;;4984770;28;20042;-50
2021/05/21 08:54:34;;;;;;;1.45;0.82;;;;;;;;;;4985570;28;20050;-55
2021/05/21 08:57:08;;;;;;;1.95;0.75;;;;;;;;;;4990654;28;20448;-51
2021/05/21 08:59:35;;;;;;;2.03;0.70;;;;;;;;;;4986827;28;20134;-55
2021/05/21 09:02:02;;;;;;;1.58;0.73;;;;;;;;;;4989991;28;20052;-52
2021/05/21 09:04:45;;;;;;;2.45;0.60;;;;;;;;;;4988562;28;20508;-49
2021/05/21 09:07:34;;;;;;;2.88;1.20;;;;;;;;;;4988285;28;20042;-50
2021/05/21 09:10:13;;;;;;;1.75;0.73;;;;;;;;;;4988842;28;20093;-48
2021/05/21 09:12:40;;;;;;;0.47;0.40;;;;;;;;;;4987442;28;20504;-48
2021/05/21 09:15:09;;;;;;;2.13;0.75;;;;;;;;;;4985562;28;20054;-50
2021/05/21 09:17:48;;;;;;;3.47;0.90;;;;;;;;;;4974058;28;20074;-46
2021/05/21 09:20:21;;;;;;;2.38;0.90;;;;;;;;;;4991645;28;20050;-47
2021/05/21 09:23:09;;;;;;;2.47;0.70;;;;;;;;;;4992962;28;20137;-47
2021/05/21 09:25:38;;;;;;;1.17;0.60;;;;;;;;;;4983957;28;20061;-46
2021/05/21 09:28:06;;;;;;;2.63;0.90;;;;;;;;;;4989542;28;20046;-48
2021/05/21 09:30:32;;;;;;;5.13;1.10;;;;;;;;;;4990894;28;20417;-48
2021/05/21 09:33:06;;;;;;;2.60;0.70;;;;;;;;;;4993229;28;20097;-49
2021/05/21 09:35:32;;;;;;;;;;;;;;;;;;4993366;28;20046;-50
2021/05/21 09:37:59;;;;;;;2.05;1.10;;;;;;;;;;4988059;28;19930;-48
2021/05/21 09:40:27;;;;;;;4.88;0.70;;;;;;;;;;4973865;28;20042;-45
2021/05/21 09:43:01;;;;;;;2.80;0.70;;;;;;;;;;4986124;28;20082;-46
2021/05/21 09:45:35;;;;;;;0.90;0.50;;;;;;;;;;4990365;28;20046;-48
2021/05/21 09:48:03;;;;;;;3.63;0.63;;;;;;;;;;4981540;28;20054;-49
2021/05/21 09:50:40;;;;;;;4.63;0.70;;;;;;;;;;4976097;28;20508;-52
2021/05/21 09:53:09;;;;;;;1.48;0.60;;;;;;;;;;4983360;28;20539;-53
2021/05/21 09:55:45;;;;;;;1.27;0.68;;;;;;;;;;4981549;28;20077;-49
2021/05/21 09:58:23;;;;;;;0.80;0.40;;;;;;;;;;4980407;28;20058;-53
2021/05/21 10:01:09;;;;;;;0.95;0.47;;;;;;;;;;4983317;28;20058;-50
2021/05/21 10:03:36;;;;;;;1.80;0.60;;;;;;;;;;4982768;28;20062;-48
2021/05/21 10:06:03;;;;;;;2.47;0.75;;;;;;;;;;4980768;28;20050;-51
2021/05/21 10:08:30;;;;;;;1.90;0.60;;;;;;;;;;4982852;28;20047;-50
2021/05/21 10:10:57;;;;;;;4.75;0.65;;;;;;;;;;4981935;28;20566;-48
2021/05/21 10:13:25;;;;;;;1.52;0.52;;;;;;;;;;4980055;28;20070;-52
2021/05/21 10:15:52;;;;;;;2.28;0.77;;;;;;;;;;4974388;28;20053;-49
2021/05/21 10:18:19;;;;;;;1.90;0.77;;;;;;;;;;4981342;28;20053;-51
2021/05/21 10:20:46;;;;;;;2.30;0.90;;;;;;;;;;4982889;28;20049;-49
2021/05/21 10:23:19;;;;;;;1.10;0.77;;;;;;;;;;4984854;28;20137;-48
2021/05/21 10:25:48;;;;;;;2.17;0.70;;;;;;;;;;4982814;28;20152;-53
2021/05/21 10:28:16;;;;;;;1.17;0.70;;;;;;;;;;4982170;28;20301;-49
2021/05/21 10:30:43;;;;;;;0.45;0.40;;;;;;;;;;4981434;28;20035;-48
2021/05/21 10:33:20;;;;;;;1.95;0.82;;;;;;;;;;4986437;28;20042;-50
2021/05/21 10:36:14;;;;;;;0.80;0.52;;;;;;;;;;4990357;28;20065;-52
2021/05/21 10:39:00;;;;;;;2.20;0.65;;;;;;;;;;4986624;28;20129;-49
2021/05/21 10:41:49;;;;;;;2.00;0.63;;;;;;;;;;4972697;28;20482;-53
2021/05/21 10:44:18;;;;;;;0.98;0.65;;;;;;;;;;4980882;28;20142;-50
2021/05/21 10:46:49;;;;;;;2.15;0.55;;;;;;;;;;4990210;28;20065;-54
2021/05/21 10:49:20;;;;;;;1.05;0.50;;;;;;;;;;4989692;28;20492;-49
2021/05/21 10:51:51;;;;;;;4.60;0.73;;;;;;;;;;4991815;28;20061;-49
2021/05/21 10:54:25;;;;;;;2.00;0.80;;;;;;;;;;4989826;28;20405;-50
2021/05/21 10:56:55;;;;;;;2.33;0.70;;;;;;;;;;4993776;28;20077;-51
2021/05/21 10:59:39;;;;;;;2.60;0.90;;;;;;;;;;4989473;28;20062;-52
2021/05/21 11:02:05;;;;;;;2.05;1.00;;;;;;;;;;4991712;28;20066;-53
2021/05/21 11:04:32;;;;;;;2.00;0.85;;;;;;;;;;4992003;28;20054;-50
2021/05/21 11:07:02;;;;;;;3.78;0.80;;;;;;;;;;4987489;28;20054;-54
2021/05/21 11:09:30;;;;;;;3.05;0.80;;;;;;;;;;4976074;28;20101;-54
2021/05/21 11:12:03;;;;;;;2.17;0.80;;;;;;;;;;4976470;28;20050;-55
2021/05/21 11:14:30;;;;;;;2.20;1.00;;;;;;;;;;4987029;28;20108;-51
2021/05/21 11:16:59;;;;;;;0.90;0.70;;;;;;;;;;4994630;28;20050;-52
2021/05/21 11:19:27;;;;;;;1.50;0.85;;;;;;;;;;4992842;28;20062;-54
2021/05/21 11:22:05;;;;;;;3.13;1.02;;;;;;;;;;4995655;28;20054;-48
2021/05/21 11:24:40;;;;;;;2.58;1.00;;;;;;;;;;4995057;28;20054;-50
2021/05/21 11:27:07;;;;;;;2.25;1.00;;;;;;;;;;4989166;28;20074;-46
2021/05/21 11:29:34;;;;;;;3.55;1.10;;;;;;;;;;4982497;28;20042;-48
2021/05/21 11:32:04;;;;;;;2.05;1.00;;;;;;;;;;4994298;28;20562;-51
2021/05/21 11:34:31;;;;;;;3.00;0.90;;;;;;;;;;4995604;28;20097;-48
2021/05/21 11:36:58;;;;;;;3.30;1.00;;;;;;;;;;4994669;28;20129;-46
2021/05/21 11:39:26;;;;;;;1.90;0.85;;;;;;;;;;4980815;28;20059;-51
2021/05/21 11:41:54;;;;;;;1.77;0.88;;;;;;;;;;4992366;28;20101;-50
2021/05/21 11:44:24;;;;;;;2.50;0.82;;;;;;;;;;4994416;28;20416;-46
2021/05/21 11:46:55;;;;;;;2.05;0.98;;;;;;;;;;4984082;28;20058;-50
2021/05/21 11:49:23;;;;;;;1.10;0.80;;;;;;;;;;4984320;28;20133;-48
2021/05/21 11:51:54;;;;;;;4.68;0.73;;;;;;;;;;4994988;28;20125;-51
2021/05/21 11:54:21;;;;;;;1.30;0.90;;;;;;;;;;4992742;28;20050;-48
2021/05/21 11:56:48;;;;;;;2.45;0.75;;;;;;;;;;4991161;28;20501;-52
2021/05/21 11:59:19;;;;;;;1.35;0.80;;;;;;;;;;4988215;28;20528;-51
2021/05/21 12:01:50;;;;;;;2.28;0.70;;;;;;;;;;4995228;28;20066;-46
2021/05/21 12:04:17;;;;;;;1.25;0.80;;;;;;;;;;4977233;28;20607;-47
2021/05/21 12:06:48;;;;;;;1.13;0.80;;;;;;;;;;4984531;28;20043;-45
2021/05/21 12:09:16;;;;;;;3.70;0.77;;;;;;;;;;4984040;28;20105;-48
2021/05/21 12:11:43;;;;;;;2.05;0.80;;;;;;;;;;4994761;28;20504;-48
2021/05/21 12:14:10;;;;;;;2.20;0.82;;;;;;;;;;4991803;28;20073;-48
2021/05/21 12:16:38;;;;;;;1.48;0.88;;;;;;;;;;4975335;28;20412;-49
2021/05/21 12:19:06;;;;;;;2.63;1.27;;;;;;;;;;4993582;28;20141;-50
2021/05/21 12:21:35;;;;;;;2.25;0.90;;;;;;;;;;4992664;28;20053;-51
2021/05/21 12:24:02;;;;;;;1.15;0.80;;;;;;;;;;4992212;28;20100;-47
2021/05/21 12:26:31;;;;;;;1.45;0.75;;;;;;;;;;4974786;28;20129;-48
2021/05/21 12:28:58;;;;;;;3.50;0.95;;;;;;;;;;4980548;28;20106;-53
2021/05/21 12:31:29;;;;;;;2.45;0.90;;;;;;;;;;5000977;28;20050;-49
2021/05/21 12:33:57;;;;;;;1.55;0.82;;;;;;;;;;5006173;28;20100;-46
2021/05/21 12:36:26;;;;;;;1.75;0.82;;;;;;;;;;4998074;28;20099;-50
2021/05/21 12:38:54;;;;;;;1.13;0.70;;;;;;;;;;4994796;28;20471;-49
2021/05/21 12:41:25;;;;;;;1.00;0.85;;;;;;;;;;4994575;28;20053;-47
2021/05/21 12:43:52;;;;;;;0.50;0.50;;;;;;;;;;4994500;28;20055;-48
2021/05/21 12:46:19;;;;;;;2.25;0.70;;;;;;;;;;4982414;28;20063;-52
2021/05/21 12:48:47;;;;;;;0.68;0.52;;;;;;;;;;4986516;28;20058;-47
2021/05/21 12:51:20;;;;;;;0.73;0.52;;;;;;;;;;5044012;22;20052;-50
2021/05/21 12:53:47;;;;;;;;;;;;;;;;;;5033833;28;20049;-54
2021/05/21 12:56:26;;;;;;;0.82;0.50;;;;;;;;;;5012102;28;19968;-51
2021/05/21 12:58:53;;;;;;;1.27;0.52;;;;;;;;;;4994042;28;20062;-50
2021/05/21 13:01:20;;;;;;;0.90;0.60;;;;;;;;;;4994266;28;20054;-50
2021/05/21 13:03:54;;;;;;;1.20;0.40;;;;;;;;;;4993868;28;20085;-54
2021/05/21 13:06:28;;;;;;;1.30;0.50;;;;;;;;;;4992203;28;20576;-54
2021/05/21 13:08:59;;;;;;;1.60;0.57;;;;;;;;;;4993739;28;20097;-53
2021/05/21 13:11:26;;;;;;;0.73;0.40;;;;;;;;;;4993820;28;20125;-53
2021/05/21 13:13:58;;;;;;;0.70;0.60;;;;;;;;;;5018024;28;20039;-55
2021/05/21 13:16:38;;;;;;;0.88;0.60;;;;;;;;;;4993174;28;20051;-51
2021/05/21 13:19:05;;;;;;;1.48;0.60;;;;;;;;;;4993595;28;20062;-52
2021/05/21 13:21:33;;;;;;;1.00;0.60;;;;;;;;;;4992222;28;20046;-53
2021/05/21 13:24:07;;;;;;;8.45;0.75;;;;;;;;;;4993706;28;20132;-55
2021/05/21 13:26:44;;;;;;;1.30;1.00;;;;;;;;;;4991619;28;20058;-49
2021/05/21 13:29:11;;;;;;;0.45;0.40;;;;;;;;;;4992984;28;20153;-50
2021/05/21 13:31:38;;;;;;;1.13;0.70;;;;;;;;;;4992703;28;20058;-50
2021/05/21 13:34:06;;;;;;;1.17;0.47;;;;;;;;;;4993326;28;20046;-55
2021/05/21 13:36:33;;;;;;;0.50;0.50;;;;;;;;;;5007899;28;20447;-51
2021/05/21 13:39:01;;;;;;;0.70;0.60;;;;;;;;;;4993038;28;20080;-54
2021/05/21 13:41:28;;;;;;;1.42;0.50;;;;;;;;;;4991677;28;20496;-53
2021/05/21 13:43:59;;;;;;;0.63;0.60;;;;;;;;;;4976368;28;20052;-49
2021/05/21 13:46:26;;;;;;;0.70;0.65;;;;;;;;;;4992150;28;20602;-50
2021/05/21 13:48:53;;;;;;;2.25;0.68;;;;;;;;;;4991496;28;20047;-54
2021/05/21 13:51:19;;;;;;;0.88;0.50;;;;;;;;;;5020378;28;20077;-52
2021/05/21 13:53:48;;;;;;;1.17;0.60;;;;;;;;;;5009127;28;20418;-52
2021/05/21 13:56:15;;;;;;;0.60;0.60;;;;;;;;;;5004896;28;20050;-54
2021/05/21 13:58:42;;;;;;;0.90;0.70;;;;;;;;;;5001514;28;20498;-50
2021/05/21 14:01:09;;;;;;;0.70;0.50;;;;;;;;;;5010009;28;20080;-52
2021/05/21 14:03:37;;;;;;;0.45;0.45;;;;;;;;;;5009690;28;20077;-52
2021/05/21 14:06:08;;;;;;;2.20;0.52;;;;;;;;;;5010005;28;20057;-49
2021/05/21 14:08:35;;;;;;;1.33;0.50;;;;;;;;;;5002697;28;20445;-53
2021/05/21 14:11:06;;;;;;;1.05;0.70;;;;;;;;;;4994279;28;20104;-56
2021/05/21 14:13:34;;;;;;;3.30;0.70;;;;;;;;;;5000466;28;20119;-54
2021/05/21 14:16:01;;;;;;;1.00;0.50;;;;;;;;;;5006019;28;20045;-52
2021/05/21 14:18:29;;;;;;;0.65;0.63;;;;;;;;;;4992047;28;20045;-53
2021/05/21 14:20:56;;;;;;;0.50;0.40;;;;;;;;;;5006100;28;20170;-52
2021/05/21 14:23:24;;;;;;;1.35;0.60;;;;;;;;;;5007452;28;20069;-56
2021/05/21 14:25:51;;;;;;;0.77;0.50;;;;;;;;;;5004749;28;20117;-55
2021/05/21 14:28:20;;;;;;;0.93;0.50;;;;;;;;;;5003538;28;20049;-50
2021/05/21 14:30:50;;;;;;;0.98;0.60;;;;;;;;;;5011055;28;20061;-56
2021/05/21 14:33:18;;;;;;;1.15;0.68;;;;;;;;;;5010787;28;20128;-52
2021/05/21 14:35:45;;;;;;;1.00;0.70;;;;;;;;;;5010584;28;20049;-52
2021/05/21 14:38:12;;;;;;;5.35;0.80;;;;;;;;;;5003899;28;20058;-53
2021/05/21 14:40:41;;;;;;;3.55;1.13;;;;;;;;;;4992042;28;20472;-52
2021/05/21 14:43:08;;;;;;;1.65;1.10;;;;;;;;;;4991359;28;20125;-57
2021/05/21 14:45:35;;;;;;;0.88;0.68;;;;;;;;;;4990862;28;20058;-56
2021/05/21 14:48:02;;;;;;;2.90;0.70;;;;;;;;;;4991249;28;20050;-55
2021/05/21 14:50:30;;;;;;;2.15;0.80;;;;;;;;;;4991978;28;20046;-55
2021/05/21 14:52:57;;;;;;;1.17;0.75;;;;;;;;;;4992122;28;20050;-60
2021/05/21 14:55:26;;;;;;;1.00;0.60;;;;;;;;;;4991896;28;20496;-56